Thu, 22 Feb 2024 20:20:42 UTC | login

Information for RPM brotli-1.0.9-6.el9.aarch64.rpm

ID287556
Namebrotli
Version1.0.9
Release6.el9
Epoch
Archaarch64
SummaryLossless compression algorithm
DescriptionBrotli is a generic-purpose lossless compression algorithm that compresses data using a combination of a modern variant of the LZ77 algorithm, Huffman coding and 2nd order context modeling, with a compression ratio comparable to the best currently available general-purpose compression methods. It is similar in speed with deflate but offers more dense compression.
Build Time2021-08-09 19:37:02 GMT
Size311.84 KB
d8c661fb3454b88dca8f335d19627baf
LicenseMIT
Buildrootc9s-build-side-264-stack-gate-157122-24760
Provides
brotli = 1.0.9-6.el9
brotli(aarch-64) = 1.0.9-6.el9
Obsoletes No Obsoletes
Conflicts No Conflicts
Requires
ld-linux-aarch64.so.1()(64bit)
ld-linux-aarch64.so.1(GLIBC_2.17)(64bit)
libbrotli(aarch-64) = 1.0.9-6.el9
libc.so.6()(64bit)
libc.so.6(GLIBC_2.17)(64bit)
libc.so.6(GLIBC_2.33)(64bit)
libc.so.6(GLIBC_2.34)(64bit)
libm.so.6()(64bit)
libm.so.6(GLIBC_2.29)(64bit)
rpmlib(CompressedFileNames) <= 3.0.4-1
rpmlib(FileDigests) <= 4.6.0-1
rpmlib(PayloadFilesHavePrefix) <= 4.0-1
rpmlib(PayloadIsZstd) <= 5.4.18-1
rtld(GNU_HASH)
Recommends No Recommends
Suggests No Suggests
Supplements No Supplements
Enhances No Enhances
Files
1 through 4 of 4
Name ascending sort Size
/usr/bin/brotli709.70 KB
/usr/lib/.build-id0.00 B
/usr/lib/.build-id/250.00 B
/usr/lib/.build-id/25/381ddf0175ee30e7a9541fa59207182b45d36f26.00 B
Component of
Page:
1 through 50 of 3807 >>>
Buildroot descending sort Created State
c9s-build-488676-461657 2024-02-21 14:03:23 expired
c9s-build-478406-459964 2024-02-20 17:56:28 expired
c9s-build-478400-459964 2024-02-20 17:48:02 expired
c9s-build-478340-459357 2024-02-20 11:48:26 expired
c9s-build-478169-457167 2024-02-19 14:55:04 expired
c9s-build-478155-457167 2024-02-19 14:28:39 expired
c9s-build-478151-457167 2024-02-19 14:18:43 expired
c9s-build-478143-457075 2024-02-19 14:11:20 expired
c9s-build-478066-456834 2024-02-19 11:56:12 expired
c9s-build-478059-456834 2024-02-19 11:48:44 expired
c9s-build-478054-456834 2024-02-19 11:47:24 expired
c9s-build-477977-456834 2024-02-19 09:01:53 expired
c9s-build-477969-456834 2024-02-19 08:54:55 expired
c9s-build-477799-455779 2024-02-16 20:59:13 expired
c9s-build-477326-454597 2024-02-16 11:22:24 expired
c9s-build-466876-452794 2024-02-15 16:08:22 expired
c9s-build-466875-452794 2024-02-15 16:05:46 expired
c9s-build-456779-450700 2024-02-14 18:44:59 expired
c9s-build-456714-450267 2024-02-14 16:44:20 expired
c9s-build-456633-450042 2024-02-14 12:30:19 expired
c9s-build-456535-449497 2024-02-14 01:06:33 expired
c9s-build-455413-447482 2024-02-12 12:17:27 expired
c9s-build-453768-445410 2024-02-09 12:54:42 expired
c9s-build-452380-443981 2024-02-08 10:02:21 expired
c9s-build-452335-443580 2024-02-07 22:13:53 expired
c9s-build-452324-443580 2024-02-07 21:35:47 expired
c9s-build-452300-443580 2024-02-07 20:34:37 expired
c9s-build-452203-443474 2024-02-07 16:16:36 expired
c9s-build-452046-442993 2024-02-07 12:54:18 expired
c9s-build-450160-439693 2024-02-05 09:22:55 expired
c9s-build-447176-436992 2024-02-01 15:51:12 expired
c9s-build-437389-435329 2024-01-31 03:44:38 expired
c9s-build-437364-434869 2024-01-30 21:12:07 expired
c9s-build-437354-434869 2024-01-30 21:08:13 expired
c9s-build-436614-432663 2024-01-29 14:15:45 expired
c9s-build-436134-431488 2024-01-26 19:19:36 expired
c9s-build-436120-431488 2024-01-26 19:07:01 expired
c9s-build-436104-431488 2024-01-26 18:21:23 expired
c9s-build-435716-430957 2024-01-25 20:35:39 expired
c9s-build-435466-430372 2024-01-25 10:14:58 expired
c9s-build-435171-429556 2024-01-24 16:42:13 expired
c9s-build-433540-427517 2024-01-23 12:59:06 expired
c9s-build-433431-426824 2024-01-22 19:54:51 expired
c9s-build-433409-426813 2024-01-22 17:52:47 expired
c9s-build-433406-426813 2024-01-22 17:49:21 expired
c9s-build-433373-426624 2024-01-22 15:19:21 expired
c9s-build-433365-426624 2024-01-22 15:15:19 expired
c9s-build-433297-426136 2024-01-22 10:02:47 expired
c9s-build-433218-425536 2024-01-21 21:58:55 expired
c9s-build-432978-424196 2024-01-19 14:04:56 expired